createdAt,value
2023-02-16T00:00:30.156Z,76.15
2023-02-16T00:04:18.704Z,76.02
2023-02-16T00:08:02.457Z,76.29
2023-02-16T00:12:02.685Z,76.21
2023-02-16T00:15:46.908Z,76.11
2023-02-16T00:19:31.785Z,76.45
2023-02-16T00:23:14.484Z,76.51
2023-02-16T00:26:57.775Z,76.43
2023-02-16T00:30:40.689Z,76.95
2023-02-16T00:34:31.079Z,76.01
2023-02-16T00:38:14.390Z,75.58
2023-02-16T00:41:59.079Z,75.52
2023-02-16T00:45:41.762Z,75.30
2023-02-16T00:49:24.512Z,75.90
2023-02-16T00:53:08.594Z,76.15
2023-02-16T00:56:51.358Z,76.30
2023-02-16T01:00:35.876Z,75.76
2023-02-16T01:04:21.678Z,76.21
2023-02-16T01:08:27.540Z,76.17
2023-02-16T01:12:18.670Z,75.85
2023-02-16T01:16:01.455Z,75.76
2023-02-16T01:19:44.241Z,76.55
2023-02-16T01:23:29.455Z,76.52
2023-02-16T01:27:14.250Z,77.05
2023-02-16T01:30:57.091Z,77.42
2023-02-16T01:34:39.866Z,76.76
2023-02-16T01:38:23.967Z,77.20
2023-02-16T01:42:33.258Z,78.02
2023-02-16T01:46:19.756Z,79.17
2023-02-16T01:50:03.601Z,79.72
2023-02-16T01:53:50.009Z,79.65
2023-02-16T01:57:39.660Z,80.54
2023-02-16T02:01:38.041Z,80.96
2023-02-16T02:05:38.397Z,81.47
2023-02-16T02:09:24.373Z,80.22
2023-02-16T02:13:12.416Z,80.88
2023-02-16T02:16:57.364Z,80.18
2023-02-16T02:21:08.232Z,80.65
2023-02-16T02:25:36.525Z,80.48
2023-02-16T02:29:45.536Z,79.93
2023-02-16T02:33:38.575Z,79.54
2023-02-16T02:37:26.223Z,79.29
2023-02-16T02:41:13.835Z,79.32
2023-02-16T02:45:03.540Z,79.75
2023-02-16T02:48:46.193Z,80.37
2023-02-16T02:52:28.830Z,80.61
2023-02-16T02:56:31.084Z,81.19
2023-02-16T03:00:38.203Z,81.56
2023-02-16T03:04:23.577Z,80.79
2023-02-16T03:08:14.035Z,80.76
2023-02-16T03:12:16.212Z,80.36
2023-02-16T03:16:03.056Z,79.87
2023-02-16T03:20:04.829Z,79.43
2023-02-16T03:24:06.231Z,78.89
2023-02-16T03:28:06.449Z,77.68
2023-02-16T03:31:52.074Z,77.49
2023-02-16T03:35:35.808Z,76.58
2023-02-16T03:39:19.235Z,75.99
2023-02-16T03:43:04.035Z,75.79
2023-02-16T03:46:49.515Z,75.89
2023-02-16T03:50:34.020Z,75.61
2023-02-16T03:54:16.761Z,75.49
2023-02-16T03:57:59.386Z,75.55
2023-02-16T04:01:42.156Z,74.42
2023-02-16T04:05:25.165Z,74.39
2023-02-16T04:09:09.280Z,73.77
2023-02-16T04:12:51.920Z,74.30
2023-02-16T04:16:34.602Z,75.05
2023-02-16T04:20:20.275Z,75.40
2023-02-16T04:24:05.663Z,75.27
2023-02-16T04:27:50.348Z,75.31
2023-02-16T04:31:33.181Z,74.87
2023-02-16T04:35:16.604Z,74.82
2023-02-16T04:38:59.256Z,75.25
2023-02-16T04:42:42.292Z,75.14
2023-02-16T04:46:26.418Z,75.13
2023-02-16T04:50:10.008Z,74.73
2023-02-16T04:53:52.709Z,74.43
2023-02-16T04:57:35.371Z,73.87
2023-02-16T05:01:23.671Z,73.32
2023-02-16T05:05:08.724Z,73.59
2023-02-16T05:08:51.390Z,73.17
2023-02-16T05:12:51.671Z,73.11
2023-02-16T05:16:34.377Z,72.62
2023-02-16T05:20:18.516Z,72.05
2023-02-16T05:24:02.320Z,72.51
2023-02-16T05:27:44.936Z,72.36
2023-02-16T05:31:28.511Z,72.36
2023-02-16T05:35:11.275Z,72.74
2023-02-16T05:38:55.396Z,73.01
2023-02-16T05:42:38.104Z,72.15
2023-02-16T05:46:21.358Z,71.86
2023-02-16T05:50:04.181Z,71.73
2023-02-16T05:53:47.197Z,72.15
2023-02-16T05:57:34.834Z,72.12
2023-02-16T06:01:18.161Z,72.34
2023-02-16T06:05:00.973Z,72.67
2023-02-16T06:08:43.653Z,72.66
2023-02-16T06:12:26.393Z,72.65
2023-02-16T06:16:10.493Z,72.43
2023-02-16T06:19:53.230Z,72.37
2023-02-16T06:23:35.887Z,72.24
2023-02-16T06:27:18.647Z,72.70
2023-02-16T06:31:01.483Z,72.98
2023-02-16T06:34:45.618Z,72.84
2023-02-16T06:38:28.312Z,72.43
2023-02-16T06:42:11.037Z,72.30
2023-02-16T06:45:53.790Z,72.53
2023-02-16T06:49:36.505Z,72.24
2023-02-16T06:53:23.745Z,72.04
2023-02-16T06:57:06.513Z,71.35
2023-02-16T07:00:49.260Z,71.10
2023-02-16T07:04:32.019Z,71.11
2023-02-16T07:08:14.665Z,70.63
2023-02-16T07:11:58.788Z,70.68
2023-02-16T07:15:41.580Z,70.63
2023-02-16T07:19:24.245Z,70.48
2023-02-16T07:23:06.989Z,70.56
2023-02-16T07:26:49.641Z,70.13
2023-02-16T07:30:33.753Z,70.20
2023-02-16T07:34:16.399Z,70.16
2023-02-16T07:37:59.096Z,69.93
2023-02-16T07:41:41.823Z,70.15
2023-02-16T07:45:24.477Z,70.73
2023-02-16T07:49:08.479Z,70.50
2023-02-16T07:52:51.234Z,70.93
2023-02-16T07:56:35.180Z,70.87
2023-02-16T08:00:18.894Z,70.74
2023-02-16T08:04:01.567Z,70.12
2023-02-16T08:07:46.823Z,69.58
2023-02-16T08:11:29.634Z,69.33
2023-02-16T08:15:12.556Z,68.39
2023-02-16T08:18:56.836Z,68.09
2023-02-16T08:22:39.547Z,67.67
2023-02-16T08:26:25.001Z,67.37
2023-02-16T08:30:12.629Z,67.47
2023-02-16T08:33:55.716Z,66.33
2023-02-16T08:37:39.347Z,65.90
2023-02-16T08:41:26.403Z,65.62
2023-02-16T08:45:09.949Z,64.86
2023-02-16T08:48:54.364Z,64.10
2023-02-16T08:52:38.601Z,62.70
2023-02-16T08:56:21.356Z,61.47
2023-02-16T09:00:25.565Z,60.62
2023-02-16T09:04:08.393Z,58.07
2023-02-16T09:07:51.700Z,58.03
2023-02-16T09:11:34.386Z,57.12
2023-02-16T09:15:18.601Z,56.55
2023-02-16T09:19:02.469Z,56.63
2023-02-16T09:22:47.206Z,55.93
2023-02-16T09:26:32.964Z,55.89
2023-02-16T09:30:16.125Z,55.55
2023-02-16T09:34:03.897Z,55.50
2023-02-16T09:37:47.020Z,55.17
2023-02-16T09:41:34.145Z,55.07
2023-02-16T09:45:18.288Z,53.86
2023-02-16T09:49:03.691Z,53.29
2023-02-16T09:52:52.510Z,53.42
2023-02-16T09:56:39.052Z,52.79
2023-02-16T10:00:27.995Z,52.65
2023-02-16T10:04:27.245Z,52.83
2023-02-16T10:08:14.412Z,53.10
2023-02-16T10:12:01.836Z,52.28
2023-02-16T10:15:45.838Z,51.32
2023-02-16T10:19:36.486Z,52.33
2023-02-16T10:23:27.908Z,52.13
2023-02-16T10:27:15.011Z,51.59
2023-02-16T10:31:05.745Z,50.08
2023-02-16T10:34:57.860Z,49.42
2023-02-16T10:38:44.635Z,48.49
2023-02-16T10:42:35.938Z,47.89
2023-02-16T10:46:27.688Z,47.00
2023-02-16T10:50:22.077Z,45.13
2023-02-16T10:54:08.833Z,44.33
2023-02-16T10:57:55.197Z,43.41
2023-02-16T11:01:40.386Z,43.74
2023-02-16T11:05:36.763Z,44.65
2023-02-16T11:09:19.444Z,44.28
2023-02-16T11:13:02.157Z,44.75
2023-02-16T11:16:45.877Z,45.11
2023-02-16T11:20:32.453Z,45.50
2023-02-16T11:24:25.538Z,45.96
2023-02-16T11:28:09.597Z,45.69
2023-02-16T11:31:52.986Z,45.22
2023-02-16T11:35:43.470Z,45.55
2023-02-16T11:39:30.764Z,45.58
2023-02-16T11:43:18.658Z,46.04
2023-02-16T11:47:04.849Z,42.21
2023-02-16T11:50:59.154Z,41.73
2023-02-16T11:54:49.502Z,40.87
2023-02-16T11:58:32.363Z,41.18
2023-02-16T12:02:36.950Z,40.29
2023-02-16T12:06:32.090Z,39.30
2023-02-16T12:10:23.452Z,39.04
2023-02-16T12:14:22.800Z,39.18
2023-02-16T12:18:32.795Z,38.82
2023-02-16T12:22:25.442Z,38.30
2023-02-16T12:26:27.955Z,37.95
2023-02-16T12:30:23.459Z,38.05
2023-02-16T12:34:17.215Z,38.27
2023-02-16T12:38:06.901Z,38.51
2023-02-16T12:41:57.863Z,37.34
2023-02-16T12:45:44.290Z,36.77
2023-02-16T12:49:29.509Z,37.14
2023-02-16T12:53:20.251Z,36.10
2023-02-16T12:57:04.924Z,35.69
2023-02-16T13:00:49.626Z,35.60
2023-02-16T13:04:43.358Z,35.65
2023-02-16T13:08:31.223Z,35.06
2023-02-16T13:12:22.045Z,34.42
2023-02-16T13:16:20.427Z,34.84
2023-02-16T13:20:17.017Z,35.39
2023-02-16T13:24:10.271Z,34.74
2023-02-16T13:28:02.851Z,34.81
2023-02-16T13:31:54.539Z,34.35
2023-02-16T13:35:55.097Z,34.32
2023-02-16T13:39:55.592Z,33.11
2023-02-16T13:43:41.989Z,33.65
2023-02-16T13:47:31.916Z,33.06
2023-02-16T13:51:17.591Z,32.64
2023-02-16T13:55:04.320Z,31.93
2023-02-16T13:58:46.959Z,31.33
2023-02-16T14:03:03.396Z,31.12
2023-02-16T14:06:46.317Z,31.25
2023-02-16T14:11:00.938Z,31.23
2023-02-16T14:14:49.650Z,30.47
2023-02-16T14:18:37.957Z,30.48
2023-02-16T14:22:23.028Z,30.68
2023-02-16T14:26:08.273Z,30.52
2023-02-16T14:29:57.925Z,30.88
2023-02-16T14:33:43.378Z,30.19
2023-02-16T14:37:36.690Z,29.84
2023-02-16T14:41:28.574Z,28.64
2023-02-16T14:45:50.789Z,28.95
2023-02-16T14:49:46.071Z,29.48
2023-02-16T14:53:59.154Z,28.40
2023-02-16T14:57:47.936Z,28.22
2023-02-16T15:01:40.558Z,28.73
2023-02-16T15:05:25.526Z,28.60
2023-02-16T15:09:17.092Z,28.81
2023-02-16T15:13:01.178Z,28.75
2023-02-16T15:16:43.892Z,28.84
2023-02-16T15:20:29.610Z,28.92
2023-02-16T15:24:26.634Z,28.81
2023-02-16T15:28:20.373Z,29.02
2023-02-16T15:32:07.634Z,28.75
2023-02-16T15:35:54.577Z,28.31
2023-02-16T15:39:49.809Z,27.87
2023-02-16T15:43:47.602Z,28.02
2023-02-16T15:47:30.298Z,28.59
2023-02-16T15:51:16.609Z,29.31
2023-02-16T15:55:01.718Z,29.80
2023-02-16T15:58:48.942Z,30.11
2023-02-16T16:02:36.689Z,30.69
2023-02-16T16:06:19.676Z,31.29
2023-02-16T16:10:05.038Z,31.58
2023-02-16T16:13:49.686Z,31.50
2023-02-16T16:17:33.809Z,32.09
2023-02-16T16:21:22.682Z,32.41
2023-02-16T16:25:29.542Z,32.38
2023-02-16T16:29:32.595Z,32.56
2023-02-16T16:33:16.539Z,32.56
2023-02-16T16:37:02.038Z,32.80
2023-02-16T16:40:51.688Z,33.30
2023-02-16T16:44:37.550Z,33.47
2023-02-16T16:48:25.619Z,33.70
2023-02-16T16:52:11.995Z,34.04
2023-02-16T16:55:54.830Z,34.54
2023-02-16T16:59:39.489Z,34.46
2023-02-16T17:03:24.958Z,34.80
2023-02-16T17:07:07.841Z,35.31
2023-02-16T17:10:50.524Z,35.83
2023-02-16T17:14:35.367Z,35.78
2023-02-16T17:18:21.563Z,35.99
2023-02-16T17:22:07.666Z,36.43
2023-02-16T17:25:50.744Z,36.52
2023-02-16T17:29:33.485Z,36.43
2023-02-16T17:33:16.199Z,36.69
2023-02-16T17:37:02.896Z,36.50
2023-02-16T17:40:47.819Z,36.71
2023-02-16T17:44:30.518Z,37.28
2023-02-16T17:48:16.928Z,37.23
2023-02-16T17:52:00.989Z,37.67
2023-02-16T17:55:44.110Z,37.99
2023-02-16T17:59:29.224Z,37.91
2023-02-16T18:03:12.565Z,38.03
2023-02-16T18:06:55.200Z,38.66
2023-02-16T18:10:41.882Z,38.72
2023-02-16T18:14:24.593Z,38.57
2023-02-16T18:18:07.949Z,38.83
2023-02-16T18:21:50.647Z,38.84
2023-02-16T18:25:33.399Z,38.93
2023-02-16T18:29:17.888Z,39.31
2023-02-16T18:33:00.545Z,39.32
2023-02-16T18:36:43.326Z,39.63
2023-02-16T18:40:26.152Z,40.22
2023-02-16T18:44:08.868Z,40.14
2023-02-16T18:47:55.936Z,40.19
2023-02-16T18:51:38.584Z,40.18
2023-02-16T18:55:21.310Z,40.45
2023-02-16T18:59:04.170Z,40.58
2023-02-16T19:02:46.851Z,40.66
2023-02-16T19:06:30.890Z,40.91
2023-02-16T19:10:13.643Z,41.10
2023-02-16T19:13:56.290Z,41.04
2023-02-16T19:17:39.532Z,41.04
2023-02-16T19:21:22.338Z,41.32
2023-02-16T19:25:07.390Z,41.87
2023-02-16T19:28:50.060Z,41.57
2023-02-16T19:32:32.785Z,41.70
2023-02-16T19:36:16.189Z,42.28
2023-02-16T19:39:58.914Z,42.00
2023-02-16T19:43:43.408Z,42.19
2023-02-16T19:47:26.071Z,42.15
2023-02-16T19:51:09.975Z,42.33
2023-02-16T19:54:52.694Z,42.48
2023-02-16T19:58:35.731Z,42.58
2023-02-16T20:02:19.863Z,43.27
2023-02-16T20:06:13.385Z,43.26
2023-02-16T20:09:56.118Z,43.19
2023-02-16T20:13:38.974Z,43.55
2023-02-16T20:17:23.080Z,43.55
2023-02-16T20:21:08.607Z,43.78
2023-02-16T20:24:53.671Z,43.93
2023-02-16T20:28:36.948Z,44.29
2023-02-16T20:32:19.786Z,44.34
2023-02-16T20:36:04.399Z,44.32
2023-02-16T20:39:54.814Z,44.42
2023-02-16T20:43:38.036Z,44.58
2023-02-16T20:47:20.747Z,44.97
2023-02-16T20:51:07.123Z,45.11
2023-02-16T20:54:49.838Z,44.73
2023-02-16T20:58:32.597Z,45.06
2023-02-16T21:02:15.293Z,45.09
2023-02-16T21:05:57.949Z,45.21
2023-02-16T21:09:42.504Z,45.29
2023-02-16T21:13:25.285Z,45.22
2023-02-16T21:17:07.973Z,45.46
2023-02-16T21:20:51.287Z,45.38
2023-02-16T21:24:34.048Z,45.27
2023-02-16T21:28:18.177Z,45.43
2023-02-16T21:32:00.960Z,45.56
2023-02-16T21:35:43.652Z,45.51
2023-02-16T21:39:46.291Z,46.18
2023-02-16T21:43:30.332Z,45.95
2023-02-16T21:47:31.421Z,45.96
2023-02-16T21:51:14.896Z,45.57
2023-02-16T21:55:15.085Z,45.73
2023-02-16T21:58:59.471Z,45.92
2023-02-16T22:02:42.176Z,45.84
2023-02-16T22:06:25.639Z,45.37
2023-02-16T22:10:09.788Z,45.72
2023-02-16T22:13:55.335Z,45.54
2023-02-16T22:17:39.427Z,45.59
2023-02-16T22:21:22.062Z,45.56
2023-02-16T22:25:04.993Z,45.28
2023-02-16T22:28:47.689Z,45.12
2023-02-16T22:32:30.418Z,45.35
2023-02-16T22:36:15.791Z,44.93
2023-02-16T22:39:58.440Z,45.07
2023-02-16T22:43:41.621Z,44.89
2023-02-16T22:47:24.225Z,44.76
2023-02-16T22:51:08.770Z,44.74
2023-02-16T22:54:52.806Z,44.66
2023-02-16T22:58:35.584Z,44.42
2023-02-16T23:02:18.283Z,44.53
2023-02-16T23:06:01.199Z,44.10
2023-02-16T23:09:43.905Z,44.05
2023-02-16T23:13:28.665Z,43.95
2023-02-16T23:17:11.329Z,44.01
2023-02-16T23:20:54.350Z,44.27
2023-02-16T23:24:37.183Z,43.97
2023-02-16T23:28:19.856Z,44.10
2023-02-16T23:32:05.550Z,43.96
2023-02-16T23:35:48.507Z,43.93
2023-02-16T23:39:31.190Z,44.30
2023-02-16T23:43:14.098Z,44.17
2023-02-16T23:46:56.773Z,44.04
2023-02-16T23:50:40.844Z,43.95
2023-02-16T23:54:23.536Z,44.10
2023-02-16T23:58:06.199Z,44.23
